Erzurum International Airport


Codes: LTCE/ERZ
Name: Erzurum International Airport
City: Erzurum
Country: Turkey
Elevation: 5763 ft.
Wikipedia:

Photos at Erzurum International Airport


   Photos courtesy of SpottingLog. You can add your own sightings and photos by signing up for a free trial today.



No photos found.

Weather at Erzurum International Airport


Time (UTC)DescriptionTempratureWindCloud coverageVisibilityPressureHumidity
15-Apr-2024 18:00Few Clouds12°C4 mph, N14%10000m1020hPa30%
15-Apr-2024 21:00Few Clouds9°C4 mph, NE13%10000m1020hPa41%
16-Apr-2024 00:00Clear Sky7°C2 mph, NE10%10000m1020hPa52%
16-Apr-2024 03:00Clear Sky6°C2 mph, NE9%10000m1021hPa53%
16-Apr-2024 06:00Clear Sky10°C0 mph, SE5%10000m1020hPa40%
16-Apr-2024 09:00Few Clouds14°C2 mph, SW13%10000m1018hPa27%
16-Apr-2024 12:00Few Clouds17°C2 mph, NW12%10000m1015hPa24%
16-Apr-2024 15:00Scattered Clouds17°C2 mph, N27%10000m1015hPa32%
16-Apr-2024 18:00Few Clouds13°C2 mph, E18%10000m1017hPa41%
16-Apr-2024 21:00Clear Sky11°C2 mph, NE3%10000m1018hPa46%
17-Apr-2024 00:00Clear Sky10°C2 mph, NE1%10000m1018hPa51%
17-Apr-2024 03:00Clear Sky9°C2 mph, NE0%10000m1018hPa55%
17-Apr-2024 06:00Clear Sky13°C2 mph, E0%10000m1017hPa42%
17-Apr-2024 09:00Clear Sky17°C0 mph, N0%10000m1014hPa29%
17-Apr-2024 12:00Clear Sky20°C4 mph, SW0%10000m1010hPa22%
17-Apr-2024 15:00Broken Clouds18°C7 mph, SW79%10000m1011hPa38%
17-Apr-2024 18:00Scattered Clouds13°C2 mph, SW48%10000m1014hPa48%
17-Apr-2024 21:00Overcast Clouds12°C0 mph, S97%10000m1014hPa54%
18-Apr-2024 00:00Overcast Clouds10°C2 mph, E99%10000m1014hPa59%
18-Apr-2024 03:00Broken Clouds9°C0 mph, S77%10000m1015hPa64%
18-Apr-2024 06:00Broken Clouds13°C0 mph, S56%10000m1014hPa46%
18-Apr-2024 09:00Broken Clouds18°C11 mph, SW83%10000m1011hPa32%
18-Apr-2024 12:00Broken Clouds19°C18 mph, SW58%10000m1010hPa38%
18-Apr-2024 15:00Scattered Clouds16°C16 mph, SW26%10000m1011hPa50%
18-Apr-2024 18:00Light Rain12°C2 mph, W14%10000m1014hPa68%
18-Apr-2024 21:00Light Rain11°C0 mph, E14%10000m1014hPa70%
19-Apr-2024 00:00Clear Sky10°C2 mph, NE6%10000m1014hPa73%
19-Apr-2024 03:00Clear Sky9°C2 mph, E0%10000m1014hPa74%
19-Apr-2024 06:00Clear Sky14°C2 mph, W0%10000m1013hPa53%
19-Apr-2024 09:00Clear Sky19°C11 mph, SW2%10000m1010hPa31%
19-Apr-2024 12:00Clear Sky20°C16 mph, SW8%10000m1009hPa28%
19-Apr-2024 15:00Broken Clouds17°C13 mph, SW83%10000m1009hPa41%
19-Apr-2024 18:00Broken Clouds13°C2 mph, W66%10000m1012hPa60%
19-Apr-2024 21:00Overcast Clouds11°C2 mph, E97%10000m1013hPa66%
20-Apr-2024 00:00Broken Clouds10°C2 mph, NE52%10000m1013hPa69%
20-Apr-2024 03:00Clear Sky10°C2 mph, E0%10000m1013hPa72%
20-Apr-2024 06:00Clear Sky14°C2 mph, E8%10000m1013hPa52%
20-Apr-2024 09:00Broken Clouds18°C7 mph, SW78%10000m1010hPa29%
20-Apr-2024 12:00Broken Clouds19°C13 mph, SW84%10000m1009hPa30%
20-Apr-2024 15:00Overcast Clouds16°C11 mph, SW100%10000m1010hPa39%